sensor_id;sensor_type;location;lat;lon;timestamp;pressure;altitude;pressure_sealevel;temperature;humidity
10587;BME280;5341;47.606;7.576;2023-03-14T00:00:53;97461.19;;;15.42;61.60
10587;BME280;5341;47.606;7.576;2023-03-14T00:03:23;97466.56;;;15.42;61.41
10587;BME280;5341;47.606;7.576;2023-03-14T00:05:54;97480.03;;;15.42;61.37
10587;BME280;5341;47.606;7.576;2023-03-14T00:08:22;97494.31;;;15.42;61.77
10587;BME280;5341;47.606;7.576;2023-03-14T00:10:50;97503.22;;;15.43;61.72
10587;BME280;5341;47.606;7.576;2023-03-14T00:13:19;97491.63;;;15.42;61.78
10587;BME280;5341;47.606;7.576;2023-03-14T00:15:46;97499.72;;;15.42;61.63
10587;BME280;5341;47.606;7.576;2023-03-14T00:18:15;97486.25;;;15.42;61.95
10587;BME280;5341;47.606;7.576;2023-03-14T00:20:46;97489.44;;;15.39;61.79
10587;BME280;5341;47.606;7.576;2023-03-14T00:23:19;97498.31;;;15.40;61.65
10587;BME280;5341;47.606;7.576;2023-03-14T00:25:46;97497.72;;;15.38;61.64
10587;BME280;5341;47.606;7.576;2023-03-14T00:28:16;97488.81;;;15.37;61.91
10587;BME280;5341;47.606;7.576;2023-03-14T00:30:48;97484.50;;;15.36;61.78
10587;BME280;5341;47.606;7.576;2023-03-14T00:33:16;97475.84;;;15.34;61.61
10587;BME280;5341;47.606;7.576;2023-03-14T00:36:03;97469.41;;;15.35;61.75
10587;BME280;5341;47.606;7.576;2023-03-14T00:38:32;97469.09;;;15.32;62.06
10587;BME280;5341;47.606;7.576;2023-03-14T00:41:03;97456.69;;;15.31;61.81
10587;BME280;5341;47.606;7.576;2023-03-14T00:43:30;97450.72;;;15.29;61.72
10587;BME280;5341;47.606;7.576;2023-03-14T00:45:59;97444.53;;;15.28;61.86
10587;BME280;5341;47.606;7.576;2023-03-14T00:48:26;97451.78;;;15.28;61.94
10587;BME280;5341;47.606;7.576;2023-03-14T00:50:54;97454.47;;;15.28;61.81
10587;BME280;5341;47.606;7.576;2023-03-14T00:53:21;97454.47;;;15.28;61.98
10587;BME280;5341;47.606;7.576;2023-03-14T00:55:49;97457.41;;;15.26;61.85
10587;BME280;5341;47.606;7.576;2023-03-14T00:58:17;97464.09;;;15.23;61.61
10587;BME280;5341;47.606;7.576;2023-03-14T01:00:45;97469.16;;;15.20;61.39
10587;BME280;5341;47.606;7.576;2023-03-14T01:03:14;97469.41;;;15.18;61.42
10587;BME280;5341;47.606;7.576;2023-03-14T01:05:41;97465.78;;;15.13;60.82
10587;BME280;5341;47.606;7.576;2023-03-14T01:08:09;97487.00;;;15.09;60.89
10587;BME280;5341;47.606;7.576;2023-03-14T01:10:38;97474.59;;;15.08;60.62
10587;BME280;5341;47.606;7.576;2023-03-14T01:13:06;97475.66;;;15.07;60.62
10587;BME280;5341;47.606;7.576;2023-03-14T01:15:36;97478.03;;;15.04;60.50
10587;BME280;5341;47.606;7.576;2023-03-14T01:18:04;97475.81;;;15.01;60.20
10587;BME280;5341;47.606;7.576;2023-03-14T01:20:33;97475.22;;;14.99;60.18
10587;BME280;5341;47.606;7.576;2023-03-14T01:23:00;97456.88;;;14.95;59.96
10587;BME280;5341;47.606;7.576;2023-03-14T01:25:27;97446.59;;;14.92;59.86
10587;BME280;5341;47.606;7.576;2023-03-14T01:27:55;97439.59;;;14.91;59.67
10587;BME280;5341;47.606;7.576;2023-03-14T01:30:23;97439.81;;;14.90;59.83
10587;BME280;5341;47.606;7.576;2023-03-14T01:32:50;97448.13;;;14.88;59.70
10587;BME280;5341;47.606;7.576;2023-03-14T01:35:18;97449.44;;;14.86;59.34
10587;BME280;5341;47.606;7.576;2023-03-14T01:37:47;97455.31;;;14.83;59.32
10587;BME280;5341;47.606;7.576;2023-03-14T01:40:19;97446.66;;;14.81;59.48
10587;BME280;5341;47.606;7.576;2023-03-14T01:42:46;97436.97;;;14.80;59.40
10587;BME280;5341;47.606;7.576;2023-03-14T01:48:18;97443.63;;;14.77;59.46
10587;BME280;5341;47.606;7.576;2023-03-14T01:50:46;97440.13;;;14.77;59.39
10587;BME280;5341;47.606;7.576;2023-03-14T01:53:15;97444.94;;;14.75;59.49
10587;BME280;5341;47.606;7.576;2023-03-14T01:55:43;97445.97;;;14.74;59.23
10587;BME280;5341;47.606;7.576;2023-03-14T01:58:10;97439.78;;;14.73;59.31
10587;BME280;5341;47.606;7.576;2023-03-14T02:00:38;97427.16;;;14.74;59.38
10587;BME280;5341;47.606;7.576;2023-03-14T02:03:10;97429.03;;;14.73;59.27
10587;BME280;5341;47.606;7.576;2023-03-14T02:05:40;97434.66;;;14.72;59.53
10587;BME280;5341;47.606;7.576;2023-03-14T02:08:16;97423.06;;;14.71;59.29
10587;BME280;5341;47.606;7.576;2023-03-14T02:10:50;97411.75;;;14.69;59.05
10587;BME280;5341;47.606;7.576;2023-03-14T02:13:30;97397.94;;;14.65;59.25
10587;BME280;5341;47.606;7.576;2023-03-14T02:16:16;97383.66;;;14.65;59.08
10587;BME280;5341;47.606;7.576;2023-03-14T02:19:09;97383.09;;;14.63;58.86
10587;BME280;5341;47.606;7.576;2023-03-14T02:21:49;97384.41;;;14.60;58.99
10587;BME280;5341;47.606;7.576;2023-03-14T02:24:30;97377.97;;;14.61;58.99
10587;BME280;5341;47.606;7.576;2023-03-14T02:27:14;97364.75;;;14.60;58.72
10587;BME280;5341;47.606;7.576;2023-03-14T02:29:49;97356.94;;;14.58;58.71
10587;BME280;5341;47.606;7.576;2023-03-14T02:32:20;97350.97;;;14.56;58.66
10587;BME280;5341;47.606;7.576;2023-03-14T02:34:50;97345.03;;;14.54;58.51
10587;BME280;5341;47.606;7.576;2023-03-14T02:37:21;97328.53;;;14.51;58.44
10587;BME280;5341;47.606;7.576;2023-03-14T02:39:50;97343.28;;;14.48;58.48
10587;BME280;5341;47.606;7.576;2023-03-14T02:42:20;97332.78;;;14.47;58.28
10587;BME280;5341;47.606;7.576;2023-03-14T02:44:50;97324.13;;;14.45;58.31
10587;BME280;5341;47.606;7.576;2023-03-14T02:47:25;97316.06;;;14.45;58.15
10587;BME280;5341;47.606;7.576;2023-03-14T02:49:59;97312.56;;;14.44;58.31
10587;BME280;5341;47.606;7.576;2023-03-14T02:52:28;97311.72;;;14.44;58.21
10587;BME280;5341;47.606;7.576;2023-03-14T02:54:55;97302.84;;;14.43;58.31
10587;BME280;5341;47.606;7.576;2023-03-14T02:57:26;97307.41;;;14.43;58.38
10587;BME280;5341;47.606;7.576;2023-03-14T02:59:54;97316.53;;;14.42;57.92
10587;BME280;5341;47.606;7.576;2023-03-14T03:02:21;97313.25;;;14.40;57.60
10587;BME280;5341;47.606;7.576;2023-03-14T03:04:51;97300.84;;;14.38;57.76
10587;BME280;5341;47.606;7.576;2023-03-14T03:07:19;97297.34;;;14.38;58.09
10587;BME280;5341;47.606;7.576;2023-03-14T03:10:00;97301.91;;;14.37;57.98
10587;BME280;5341;47.606;7.576;2023-03-14T03:12:29;97302.97;;;14.36;57.95
10587;BME280;5341;47.606;7.576;2023-03-14T03:14:56;97298.16;;;14.38;58.04
10587;BME280;5341;47.606;7.576;2023-03-14T03:17:24;97292.22;;;14.36;58.05
10587;BME280;5341;47.606;7.576;2023-03-14T03:19:51;97288.47;;;14.37;58.35
10587;BME280;5341;47.606;7.576;2023-03-14T03:22:18;97281.47;;;14.36;58.13
10587;BME280;5341;47.606;7.576;2023-03-14T03:24:46;97284.41;;;14.35;58.25
10587;BME280;5341;47.606;7.576;2023-03-14T03:27:13;97276.34;;;14.35;58.32
10587;BME280;5341;47.606;7.576;2023-03-14T03:29:42;97268.25;;;14.35;58.37
10587;BME280;5341;47.606;7.576;2023-03-14T03:32:09;97270.97;;;14.35;58.42
10587;BME280;5341;47.606;7.576;2023-03-14T03:34:37;97272.00;;;14.34;58.50
10587;BME280;5341;47.606;7.576;2023-03-14T03:37:05;97267.44;;;14.34;58.44
10587;BME280;5341;47.606;7.576;2023-03-14T03:39:36;97268.75;;;14.32;58.45
10587;BME280;5341;47.606;7.576;2023-03-14T03:42:04;97275.19;;;14.31;58.41
10587;BME280;5341;47.606;7.576;2023-03-14T03:44:31;97273.56;;;14.30;58.17
10587;BME280;5341;47.606;7.576;2023-03-14T03:47:00;97259.78;;;14.26;57.73
10587;BME280;5341;47.606;7.576;2023-03-14T03:49:28;97251.38;;;14.23;57.63
10587;BME280;5341;47.606;7.576;2023-03-14T03:51:56;97244.38;;;14.22;57.62
10587;BME280;5341;47.606;7.576;2023-03-14T03:54:24;97235.75;;;14.20;57.26
10587;BME280;5341;47.606;7.576;2023-03-14T03:56:51;97229.56;;;14.19;57.24
10587;BME280;5341;47.606;7.576;2023-03-14T03:59:18;97234.56;;;14.16;56.89
10587;BME280;5341;47.606;7.576;2023-03-14T04:01:47;97220.81;;;14.12;56.30
10587;BME280;5341;47.606;7.576;2023-03-14T04:04:16;97214.31;;;14.08;56.36
10587;BME280;5341;47.606;7.576;2023-03-14T04:06:44;97201.94;;;14.07;56.50
10587;BME280;5341;47.606;7.576;2023-03-14T04:09:11;97200.50;;;14.04;56.55
10587;BME280;5341;47.606;7.576;2023-03-14T04:11:45;97190.81;;;14.03;56.58
10587;BME280;5341;47.606;7.576;2023-03-14T04:14:33;97192.13;;;14.01;56.52
10587;BME280;5341;47.606;7.576;2023-03-14T04:17:14;97190.50;;;14.00;56.08
10587;BME280;5341;47.606;7.576;2023-03-14T04:19:44;97185.38;;;13.98;55.67
10587;BME280;5341;47.606;7.576;2023-03-14T04:22:11;97193.44;;;13.98;56.00
10587;BME280;5341;47.606;7.576;2023-03-14T04:24:48;97188.88;;;13.99;55.76
10587;BME280;5341;47.606;7.576;2023-03-14T04:27:18;97178.63;;;13.96;55.48
10587;BME280;5341;47.606;7.576;2023-03-14T04:29:46;97175.13;;;13.95;55.52
10587;BME280;5341;47.606;7.576;2023-03-14T04:32:17;97178.88;;;13.94;55.63
10587;BME280;5341;47.606;7.576;2023-03-14T04:34:46;97183.19;;;13.95;55.78
10587;BME280;5341;47.606;7.576;2023-03-14T04:37:14;97188.81;;;13.94;55.68
10587;BME280;5341;47.606;7.576;2023-03-14T04:39:44;97178.88;;;13.94;55.82
10587;BME280;5341;47.606;7.576;2023-03-14T04:42:18;97178.06;;;13.94;55.48
10587;BME280;5341;47.606;7.576;2023-03-14T04:44:47;97166.50;;;13.93;55.55
10587;BME280;5341;47.606;7.576;2023-03-14T04:47:15;97158.63;;;13.92;55.59
10587;BME280;5341;47.606;7.576;2023-03-14T04:49:46;97152.47;;;13.91;55.25
10587;BME280;5341;47.606;7.576;2023-03-14T04:52:15;97141.72;;;13.91;55.48
10587;BME280;5341;47.606;7.576;2023-03-14T04:54:43;97132.03;;;13.90;55.33
10587;BME280;5341;47.606;7.576;2023-03-14T04:57:11;97123.38;;;13.88;55.18
10587;BME280;5341;47.606;7.576;2023-03-14T04:59:39;97126.06;;;13.88;55.23
10587;BME280;5341;47.606;7.576;2023-03-14T05:02:31;97114.50;;;13.88;55.54
10587;BME280;5341;47.606;7.576;2023-03-14T05:05:22;97115.09;;;13.90;55.52
10587;BME280;5341;47.606;7.576;2023-03-14T05:08:09;97105.41;;;13.89;55.63
10587;BME280;5341;47.606;7.576;2023-03-14T05:10:52;97095.97;;;13.86;55.75
10587;BME280;5341;47.606;7.576;2023-03-14T05:13:49;97101.31;;;13.86;55.92
10587;BME280;5341;47.606;7.576;2023-03-14T05:16:36;97106.13;;;13.84;55.49
10587;BME280;5341;47.606;7.576;2023-03-14T05:19:21;97106.38;;;13.83;55.76
10587;BME280;5341;47.606;7.576;2023-03-14T05:22:09;97100.19;;;13.82;56.04
10587;BME280;5341;47.606;7.576;2023-03-14T05:24:54;97097.72;;;13.81;55.68
10587;BME280;5341;47.606;7.576;2023-03-14T05:27:47;97085.34;;;13.79;56.00
10587;BME280;5341;47.606;7.576;2023-03-14T05:30:45;97079.78;;;13.81;56.21
10587;BME280;5341;47.606;7.576;2023-03-14T05:33:50;97066.34;;;13.81;56.32
10587;BME280;5341;47.606;7.576;2023-03-14T05:37:01;97069.84;;;13.82;56.26
10587;BME280;5341;47.606;7.576;2023-03-14T05:40:23;97068.19;;;13.81;56.39
10587;BME280;5341;47.606;7.576;2023-03-14T05:43:11;97059.31;;;13.80;56.40
10587;BME280;5341;47.606;7.576;2023-03-14T05:46:06;97068.19;;;13.81;56.57
10587;BME280;5341;47.606;7.576;2023-03-14T05:48:53;97067.38;;;13.80;56.55
10587;BME280;5341;47.606;7.576;2023-03-14T05:51:39;97058.50;;;13.79;56.51
10587;BME280;5341;47.606;7.576;2023-03-14T05:54:17;97062.81;;;13.81;56.92
10587;BME280;5341;47.606;7.576;2023-03-14T05:56:55;97063.66;;;13.81;56.70
10587;BME280;5341;47.606;7.576;2023-03-14T05:59:52;97061.78;;;13.82;56.79
10587;BME280;5341;47.606;7.576;2023-03-14T06:02:26;97067.16;;;13.82;56.79
10587;BME280;5341;47.606;7.576;2023-03-14T06:05:02;97067.16;;;13.82;56.72
10587;BME280;5341;47.606;7.576;2023-03-14T06:07:29;97063.41;;;13.83;56.85
10587;BME280;5341;47.606;7.576;2023-03-14T06:09:57;97066.09;;;13.83;56.96
10587;BME280;5341;47.606;7.576;2023-03-14T06:12:26;97047.28;;;13.83;56.82
10587;BME280;5341;47.606;7.576;2023-03-14T06:14:55;97049.97;;;13.83;56.78
10587;BME280;5341;47.606;7.576;2023-03-14T06:17:22;97045.41;;;13.83;56.84
10587;BME280;5341;47.606;7.576;2023-03-14T06:20:00;97040.03;;;13.83;56.75
10587;BME280;5341;47.606;7.576;2023-03-14T06:22:30;97039.22;;;13.83;56.66
10587;BME280;5341;47.606;7.576;2023-03-14T06:24:57;97042.72;;;13.83;56.40
10587;BME280;5341;47.606;7.576;2023-03-14T06:27:27;97038.41;;;13.82;56.69
10587;BME280;5341;47.606;7.576;2023-03-14T06:29:55;97041.66;;;13.84;56.60
10587;BME280;5341;47.606;7.576;2023-03-14T06:32:24;97040.84;;;13.84;56.90
10587;BME280;5341;47.606;7.576;2023-03-14T06:34:53;97032.78;;;13.84;56.81
10587;BME280;5341;47.606;7.576;2023-03-14T06:37:23;97031.72;;;13.85;56.61
10587;BME280;5341;47.606;7.576;2023-03-14T06:39:51;97037.34;;;13.83;56.60
10587;BME280;5341;47.606;7.576;2023-03-14T06:42:35;97041.66;;;13.84;56.62
10587;BME280;5341;47.606;7.576;2023-03-14T06:45:04;97041.66;;;13.84;56.28
10587;BME280;5341;47.606;7.576;2023-03-14T06:47:31;97047.84;;;13.85;56.28
10587;BME280;5341;47.606;7.576;2023-03-14T06:49:58;97048.66;;;13.85;56.46
10587;BME280;5341;47.606;7.576;2023-03-14T06:52:26;97049.47;;;13.86;56.40
10587;BME280;5341;47.606;7.576;2023-03-14T06:54:53;97052.16;;;13.86;56.57
10587;BME280;5341;47.606;7.576;2023-03-14T06:57:22;97057.28;;;13.87;56.81
10587;BME280;5341;47.606;7.576;2023-03-14T06:59:55;97054.34;;;13.89;56.51
10587;BME280;5341;47.606;7.576;2023-03-14T07:02:26;97053.28;;;13.90;56.69
10587;BME280;5341;47.606;7.576;2023-03-14T07:04:59;97060.28;;;13.91;56.47
10587;BME280;5341;47.606;7.576;2023-03-14T07:07:31;97054.66;;;13.92;56.69
10587;BME280;5341;47.606;7.576;2023-03-14T07:10:03;97059.81;;;13.94;56.65
10587;BME280;5341;47.606;7.576;2023-03-14T07:12:35;97062.50;;;13.94;56.53
10587;BME280;5341;47.606;7.576;2023-03-14T07:15:06;97071.13;;;13.96;56.53
10587;BME280;5341;47.606;7.576;2023-03-14T07:17:35;97075.94;;;13.94;56.69
10587;BME280;5341;47.606;7.576;2023-03-14T07:20:03;97079.91;;;13.91;56.30
10587;BME280;5341;47.606;7.576;2023-03-14T07:22:36;97083.66;;;13.90;56.24
10587;BME280;5341;47.606;7.576;2023-03-14T07:25:04;97083.91;;;13.89;56.44
10587;BME280;5341;47.606;7.576;2023-03-14T07:27:32;97093.84;;;13.88;56.60
10587;BME280;5341;47.606;7.576;2023-03-14T07:29:59;97091.47;;;13.92;56.71
10587;BME280;5341;47.606;7.576;2023-03-14T07:32:28;97100.13;;;13.94;57.04
10587;BME280;5341;47.606;7.576;2023-03-14T07:34:56;97096.69;;;13.98;57.17
10587;BME280;5341;47.606;7.576;2023-03-14T07:37:24;97093.50;;;14.01;56.97
10587;BME280;5341;47.606;7.576;2023-03-14T07:39:51;97107.25;;;14.05;56.86
10587;BME280;5341;47.606;7.576;2023-03-14T07:42:22;97111.34;;;14.07;56.91
10587;BME280;5341;47.606;7.576;2023-03-14T07:45:09;97112.97;;;14.08;57.40
10587;BME280;5341;47.606;7.576;2023-03-14T07:47:38;97110.84;;;14.11;57.47
10587;BME280;5341;47.606;7.576;2023-03-14T07:50:05;97104.97;;;14.14;57.52
10587;BME280;5341;47.606;7.576;2023-03-14T07:52:33;97121.94;;;14.14;57.42
10587;BME280;5341;47.606;7.576;2023-03-14T07:55:00;97115.75;;;14.14;57.44
10587;BME280;5341;47.606;7.576;2023-03-14T07:57:27;97119.81;;;14.16;57.47
10587;BME280;5341;47.606;7.576;2023-03-14T07:59:55;97124.97;;;14.18;57.49
10587;BME280;5341;47.606;7.576;2023-03-14T08:02:22;97127.66;;;14.18;57.18
10587;BME280;5341;47.606;7.576;2023-03-14T08:04:51;97133.59;;;14.20;57.04
10587;BME280;5341;47.606;7.576;2023-03-14T08:07:18;97122.59;;;14.21;57.13
10587;BME280;5341;47.606;7.576;2023-03-14T08:09:45;97126.91;;;14.22;56.97
10587;BME280;5341;47.606;7.576;2023-03-14T08:12:13;97143.59;;;14.24;57.08
10587;BME280;5341;47.606;7.576;2023-03-14T08:14:41;97136.84;;;14.22;56.39
10587;BME280;5341;47.606;7.576;2023-03-14T08:17:11;97141.91;;;14.18;56.30
10587;BME280;5341;47.606;7.576;2023-03-14T08:19:38;97138.88;;;14.15;55.76
10587;BME280;5341;47.606;7.576;2023-03-14T08:22:09;97141.81;;;14.13;55.51
10587;BME280;5341;47.606;7.576;2023-03-14T08:24:36;97138.88;;;14.15;55.75
10587;BME280;5341;47.606;7.576;2023-03-14T08:27:03;97146.69;;;14.16;55.78
10587;BME280;5341;47.606;7.576;2023-03-14T08:29:31;97145.88;;;14.16;55.58
10587;BME280;5341;47.606;7.576;2023-03-14T08:31:58;97150.19;;;14.17;55.69
10587;BME280;5341;47.606;7.576;2023-03-14T08:34:25;97155.34;;;14.18;55.79
10587;BME280;5341;47.606;7.576;2023-03-14T08:36:53;97159.06;;;14.17;55.38
10587;BME280;5341;47.606;7.576;2023-03-14T08:39:23;97146.63;;;14.11;54.93
10587;BME280;5341;47.606;7.576;2023-03-14T08:41:51;97161.69;;;14.12;55.38
10587;BME280;5341;47.606;7.576;2023-03-14T08:44:18;97161.38;;;14.08;54.96
10587;BME280;5341;47.606;7.576;2023-03-14T08:46:45;97177.25;;;14.10;54.98
10587;BME280;5341;47.606;7.576;2023-03-14T08:49:13;97167.31;;;14.11;54.75
10587;BME280;5341;47.606;7.576;2023-03-14T08:51:41;97180.50;;;14.12;55.20
10587;BME280;5341;47.606;7.576;2023-03-14T08:54:10;97183.19;;;14.12;55.33
10587;BME280;5341;47.606;7.576;2023-03-14T08:56:39;97172.19;;;14.14;55.17
10587;BME280;5341;47.606;7.576;2023-03-14T08:59:07;97188.06;;;14.15;55.42
10587;BME280;5341;47.606;7.576;2023-03-14T09:01:36;97188.56;;;14.12;55.31
10587;BME280;5341;47.606;7.576;2023-03-14T09:04:04;97198.75;;;14.10;55.57
10587;BME280;5341;47.606;7.576;2023-03-14T09:06:32;97178.69;;;14.01;55.18
10587;BME280;5341;47.606;7.576;2023-03-14T09:08:59;97189.94;;;13.98;55.36
10587;BME280;5341;47.606;7.576;2023-03-14T09:11:27;97186.94;;;13.94;55.39
10587;BME280;5341;47.606;7.576;2023-03-14T09:13:55;97193.81;;;13.90;55.24
10587;BME280;5341;47.606;7.576;2023-03-14T09:16:23;97198.63;;;13.88;55.59
10587;BME280;5341;47.606;7.576;2023-03-14T09:18:50;97215.47;;;13.84;55.64
10587;BME280;5341;47.606;7.576;2023-03-14T09:21:20;97218.75;;;13.86;55.88
10587;BME280;5341;47.606;7.576;2023-03-14T09:23:47;97218.75;;;13.86;56.25
10587;BME280;5341;47.606;7.576;2023-03-14T09:26:14;97218.63;;;13.81;56.60
10587;BME280;5341;47.606;7.576;2023-03-14T09:28:42;97237.59;;;13.74;56.82
10587;BME280;5341;47.606;7.576;2023-03-14T09:31:11;97229.91;;;13.66;57.42
10587;BME280;5341;47.606;7.576;2023-03-14T09:33:39;97235.03;;;13.67;57.64
10587;BME280;5341;47.606;7.576;2023-03-14T09:36:07;97249.63;;;13.71;57.90
10587;BME280;5341;47.606;7.576;2023-03-14T09:38:34;97252.56;;;13.70;57.64
10587;BME280;5341;47.606;7.576;2023-03-14T09:41:12;97259.81;;;13.69;57.31
10587;BME280;5341;47.606;7.576;2023-03-14T09:43:42;97265.56;;;13.61;57.54
10587;BME280;5341;47.606;7.576;2023-03-14T09:46:13;97267.09;;;13.57;57.78
10587;BME280;5341;47.606;7.576;2023-03-14T09:48:41;97266.59;;;13.60;57.91
10587;BME280;5341;47.606;7.576;2023-03-14T09:51:13;97269.06;;;13.62;57.72
10587;BME280;5341;47.606;7.576;2023-03-14T09:53:42;97295.66;;;13.63;57.69
10587;BME280;5341;47.606;7.576;2023-03-14T09:56:14;97283.88;;;13.64;57.82
10587;BME280;5341;47.606;7.576;2023-03-14T09:58:52;97283.91;;;13.53;58.34
10587;BME280;5341;47.606;7.576;2023-03-14T10:01:29;97302.84;;;13.46;58.49
10587;BME280;5341;47.606;7.576;2023-03-14T10:04:00;97295.84;;;13.45;58.34
10587;BME280;5341;47.606;7.576;2023-03-14T10:06:30;97304.72;;;13.45;58.76
10587;BME280;5341;47.606;7.576;2023-03-14T10:08:58;97302.03;;;13.45;58.84
10587;BME280;5341;47.606;7.576;2023-03-14T10:11:25;97312.78;;;13.45;58.89
10587;BME280;5341;47.606;7.576;2023-03-14T10:14:05;97316.03;;;13.47;58.99
10587;BME280;5341;47.606;7.576;2023-03-14T10:16:35;97315.91;;;13.42;58.79
10587;BME280;5341;47.606;7.576;2023-03-14T10:19:06;97316.13;;;13.41;58.97
10587;BME280;5341;47.606;7.576;2023-03-14T10:21:38;97314.50;;;13.40;58.91
10587;BME280;5341;47.606;7.576;2023-03-14T10:24:10;97324.34;;;13.34;59.13
10587;BME280;5341;47.606;7.576;2023-03-14T10:26:48;97330.03;;;13.38;59.37
10587;BME280;5341;47.606;7.576;2023-03-14T10:29:15;97321.19;;;13.37;59.34
10587;BME280;5341;47.606;7.576;2023-03-14T10:31:51;97342.91;;;13.36;59.31
10587;BME280;5341;47.606;7.576;2023-03-14T10:34:23;97343.13;;;13.34;59.03
10587;BME280;5341;47.606;7.576;2023-03-14T10:36:56;97378.72;;;13.30;59.28
10587;BME280;5341;47.606;7.576;2023-03-14T10:39:32;97368.09;;;13.23;59.32
10587;BME280;5341;47.606;7.576;2023-03-14T10:42:11;97378.28;;;13.21;60.00
10587;BME280;5341;47.606;7.576;2023-03-14T10:44:39;97386.97;;;13.16;60.56
10587;BME280;5341;47.606;7.576;2023-03-14T10:47:17;97401.09;;;13.12;61.12
10587;BME280;5341;47.606;7.576;2023-03-14T10:49:46;97399.56;;;13.04;61.42
10587;BME280;5341;47.606;7.576;2023-03-14T10:52:20;97405.16;;;13.03;61.55
10587;BME280;5341;47.606;7.576;2023-03-14T10:54:49;97405.63;;;13.00;62.04
10587;BME280;5341;47.606;7.576;2023-03-14T10:57:22;97409.81;;;12.96;62.66
10587;BME280;5341;47.606;7.576;2023-03-14T10:59:50;97430.91;;;12.92;63.02
10587;BME280;5341;47.606;7.576;2023-03-14T11:02:34;97446.44;;;12.90;63.08
10587;BME280;5341;47.606;7.576;2023-03-14T11:05:16;97450.41;;;12.87;63.10
10587;BME280;5341;47.606;7.576;2023-03-14T11:07:46;97472.22;;;12.91;63.25
10587;BME280;5341;47.606;7.576;2023-03-14T11:10:20;97475.13;;;12.89;63.33
10587;BME280;5341;47.606;7.576;2023-03-14T11:13:01;97485.75;;;12.84;63.31
10587;BME280;5341;47.606;7.576;2023-03-14T11:15:34;97482.09;;;12.79;62.88
10587;BME280;5341;47.606;7.576;2023-03-14T11:18:23;97499.22;;;12.78;63.28
10587;BME280;5341;47.606;7.576;2023-03-14T11:20:57;97502.97;;;12.77;63.82
10587;BME280;5341;47.606;7.576;2023-03-14T11:23:32;97528.84;;;12.83;63.64
10587;BME280;5341;47.606;7.576;2023-03-14T11:26:09;97530.72;;;12.82;64.33
10587;BME280;5341;47.606;7.576;2023-03-14T11:28:43;97540.88;;;12.80;64.75
10587;BME280;5341;47.606;7.576;2023-03-14T11:31:18;97545.19;;;12.81;64.67
10587;BME280;5341;47.606;7.576;2023-03-14T11:33:56;97558.06;;;12.91;64.65
10587;BME280;5341;47.606;7.576;2023-03-14T11:36:27;97565.06;;;12.92;64.73
10587;BME280;5341;47.606;7.576;2023-03-14T11:38:58;97563.22;;;12.93;64.55
10587;BME280;5341;47.606;7.576;2023-03-14T11:41:30;97574.09;;;12.98;64.40
10587;BME280;5341;47.606;7.576;2023-03-14T11:44:02;97580.72;;;12.95;63.70
10587;BME280;5341;47.606;7.576;2023-03-14T11:46:34;97592.50;;;12.94;63.90
10587;BME280;5341;47.606;7.576;2023-03-14T11:49:09;97596.44;;;12.91;63.49
10587;BME280;5341;47.606;7.576;2023-03-14T11:51:44;97614.28;;;12.86;63.43
10587;BME280;5341;47.606;7.576;2023-03-14T11:54:17;97622.34;;;12.86;63.53
10587;BME280;5341;47.606;7.576;2023-03-14T11:56:48;97647.66;;;12.90;63.37
10587;BME280;5341;47.606;7.576;2023-03-14T11:59:22;97653.47;;;12.87;62.49
10587;BME280;5341;47.606;7.576;2023-03-14T12:01:54;97648.13;;;12.87;62.06
10587;BME280;5341;47.606;7.576;2023-03-14T12:04:40;97663.63;;;12.85;62.05
10587;BME280;5341;47.606;7.576;2023-03-14T12:07:17;97685.69;;;12.87;61.90
10587;BME280;5341;47.606;7.576;2023-03-14T12:09:46;97692.44;;;12.89;61.74
10587;BME280;5341;47.606;7.576;2023-03-14T12:12:19;97710.41;;;12.89;61.57
10587;BME280;5341;47.606;7.576;2023-03-14T12:14:54;97743.72;;;12.81;59.81
10587;BME280;5341;47.606;7.576;2023-03-14T12:17:25;97754.88;;;12.60;57.57
10587;BME280;5341;47.606;7.576;2023-03-14T12:20:06;97766.78;;;12.39;59.01
10587;BME280;5341;47.606;7.576;2023-03-14T12:22:43;97765.63;;;12.28;58.29
10587;BME280;5341;47.606;7.576;2023-03-14T12:25:17;97785.44;;;12.27;58.25
10587;BME280;5341;47.606;7.576;2023-03-14T12:30:37;97798.91;;;12.14;56.51
10587;BME280;5341;47.606;7.576;2023-03-14T12:33:27;97811.72;;;12.12;55.72
10587;BME280;5341;47.606;7.576;2023-03-14T12:38:58;97832.75;;;12.09;56.26
10587;BME280;5341;47.606;7.576;2023-03-14T12:41:34;97827.38;;;12.15;55.83
10587;BME280;5341;47.606;7.576;2023-03-14T12:50:19;97831.69;;;12.16;55.25
10587;BME280;5341;47.606;7.576;2023-03-14T12:55:47;97847.94;;;12.21;54.31
10587;BME280;5341;47.606;7.576;2023-03-14T12:58:23;97853.28;;;12.21;55.08
10587;BME280;5341;47.606;7.576;2023-03-14T13:00:57;97863.13;;;12.34;55.77
10587;BME280;5341;47.606;7.576;2023-03-14T13:03:27;97867.56;;;12.47;55.14
10587;BME280;5341;47.606;7.576;2023-03-14T13:06:03;97866.28;;;12.56;55.06
10587;BME280;5341;47.606;7.576;2023-03-14T13:08:36;97868.94;;;12.63;54.98
10587;BME280;5341;47.606;7.576;2023-03-14T13:11:08;97869.53;;;12.65;54.71
10587;BME280;5341;47.606;7.576;2023-03-14T13:13:41;97879.38;;;12.71;55.52
10587;BME280;5341;47.606;7.576;2023-03-14T13:16:14;97879.34;;;12.77;55.74
10587;BME280;5341;47.606;7.576;2023-03-14T13:18:43;97869.44;;;12.78;56.40
10587;BME280;5341;47.606;7.576;2023-03-14T13:21:14;97875.16;;;12.81;56.15
10587;BME280;5341;47.606;7.576;2023-03-14T13:23:55;97865.81;;;12.90;57.32
10587;BME280;5341;47.606;7.576;2023-03-14T13:26:32;97873.00;;;12.97;57.71
10587;BME280;5341;47.606;7.576;2023-03-14T13:29:09;97875.03;;;13.01;57.61
10587;BME280;5341;47.606;7.576;2023-03-14T13:31:36;97881.25;;;12.95;56.91
10587;BME280;5341;47.606;7.576;2023-03-14T13:34:06;97872.13;;;13.03;57.61
10587;BME280;5341;47.606;7.576;2023-03-14T13:36:37;97882.28;;;12.94;57.58
10587;BME280;5341;47.606;7.576;2023-03-14T13:39:09;97879.63;;;12.94;57.55
10587;BME280;5341;47.606;7.576;2023-03-14T13:41:40;97877.53;;;12.96;57.87
10587;BME280;5341;47.606;7.576;2023-03-14T13:44:08;97886.59;;;13.02;58.19
10587;BME280;5341;47.606;7.576;2023-03-14T13:46:36;97900.97;;;13.07;58.39
10587;BME280;5341;47.606;7.576;2023-03-14T13:49:05;97900.59;;;13.04;57.05
10587;BME280;5341;47.606;7.576;2023-03-14T13:51:33;97915.31;;;12.95;56.56
10587;BME280;5341;47.606;7.576;2023-03-14T13:54:01;97907.72;;;12.91;56.87